Airfield :
LOGIN :

Register | Disclaimer

   EN    FR    IT 

 










Legend :    VFR   Marginal VFR   IFR   Intensive IFR   Very Intensive IFR
Visi :
Ceiling :
>= 8 km
>= 3000ft
5 to 8 km
1000 to 3000 ft
1500m to 5 km
500 to 1000 ft
800 to 1500m
200 to 500 ft
< 800m
< 200 ft
Symbols :   Thunderstorms  Fog  Heavy snow  Heavy precipitations  Wind > 20 kt
SIGMETs :     Misc.  Thunderstorms  Icing  Turbulence  Mountain Waves  Volcanic Ashes






- Airport Elevation : 82 ft
- IATA code : QIE


LFMI - Istres

CURRENT METAR :
  • 102030Z AUTO 36010KT CAVOK 06/M01 Q1020 NOSIG

EXPIRED METARs :
  • 102000Z AUTO 33013KT CAVOK 05/M00 Q1021 NOSIG
  • 101930Z AUTO 33007KT CAVOK 05/M00 Q1021 NOSIG
  • 101900Z AUTO 33004KT 300V010 CAVOK 06/M01 Q1021 NOSIG
  • 101830Z AUTO 01013KT CAVOK 07/M01 Q1020 NOSIG
  • 101800Z AUTO 36014KT CAVOK 07/M01 Q1020 NOSIG

TAF TAF LFMI
Valid from the 10 at 21:00 until the 11 at 21:00 UTC


102000Z 1021/1121 34010KT CAVOK
BECMG 1022/1024 05005KT
BECMG 1115/1117 31010KT
PROB40
TEMPO 1116/1118 -RA BKN020



MET'MAP, your aeronautical weather chart ! - Copyright ORBIFLY December 2007 - Disclaimer

ORBIFLY MET'MAP TEAM :

Programming & Development : Alexandra Zaïnal
Concept & original design : Baudouin d'Aumeries
Assistance for programming : Marc-Olivier Méhu
Technical & hardware support : Manuel Goepfert

Contact : metmap@orbifly.com




SOURCES & CREDITS :

   NOAA